Time;durP1;ratioP1;P1;durP2;ratioP2;P2;SDS_P1;SDS_P2;PMS_P1;PMS_P2;Temp;Humidity;BMP_temperature;BMP_pressure;BME280_temperature;BME280_humidity;BME280_pressure;Samples;Min_cycle;Max_cycle;Signal;HPM_P1;HPM_P2
2022/04/17 00:00:13;;;;;;;43.03;29.23;;;7.50;99.90;;;;;;4898107;29;20249;-58
2022/04/17 00:02:42;;;;;;;43.03;28.97;;;7.40;99.90;;;;;;4889523;29;20321;-58
2022/04/17 00:05:10;;;;;;;37.30;25.43;;;7.50;99.90;;;;;;4896174;29;20312;-58
2022/04/17 00:07:39;;;;;;;42.03;27.57;;;7.40;99.90;;;;;;4889667;29;20245;-58
2022/04/17 00:10:09;;;;;;;41.97;26.93;;;7.40;99.90;;;;;;4896537;29;20249;-59
2022/04/17 00:12:39;;;;;;;41.37;25.13;;;7.40;99.90;;;;;;4895838;29;20233;-59
2022/04/17 00:15:09;;;;;;;36.27;24.87;;;7.40;99.90;;;;;;4897674;29;20243;-58
2022/04/17 00:17:42;;;;;;;33.97;21.63;;;7.30;99.90;;;;;;4887999;29;20418;-58
2022/04/17 00:20:11;;;;;;;27.00;19.77;;;7.40;99.90;;;;;;4895247;29;20241;-58
2022/04/17 00:22:40;;;;;;;26.67;18.73;;;7.40;99.90;;;;;;4893619;29;20590;-58
2022/04/17 00:25:09;;;;;;;26.03;18.30;;;7.60;99.90;;;;;;4897219;29;20718;-58
2022/04/17 00:27:38;;;;;;;21.57;15.70;;;7.60;99.90;;;;;;4895844;29;20237;-59
2022/04/17 00:30:08;;;;;;;24.73;17.90;;;7.70;99.90;;;;;;4896563;29;20240;-58
2022/04/17 00:32:38;;;;;;;18.37;14.30;;;7.70;99.90;;;;;;4895246;29;20243;-58
2022/04/17 00:35:08;;;;;;;20.97;15.00;;;7.80;99.90;;;;;;4895645;29;20237;-59
2022/04/17 00:37:37;;;;;;;23.03;17.47;;;7.80;99.90;;;;;;4895440;29;20237;-58
2022/04/17 00:40:07;;;;;;;25.13;18.63;;;7.80;99.90;;;;;;4896870;29;20265;-59
2022/04/17 00:42:35;;;;;;;23.60;17.97;;;7.70;99.90;;;;;;4895605;29;20292;-59
2022/04/17 00:45:04;;;;;;;21.63;16.90;;;7.60;99.90;;;;;;4896968;29;20319;-59
2022/04/17 00:47:32;;;;;;;21.53;15.67;;;7.50;99.90;;;;;;4900729;29;20237;-58
2022/04/17 00:50:02;;;;;;;19.93;14.70;;;7.50;99.90;;;;;;4899516;29;20240;-58
2022/04/17 00:52:31;;;;;;;20.93;16.77;;;7.60;99.90;;;;;;4904706;29;20248;-58
2022/04/17 00:54:59;;;;;;;19.63;15.63;;;7.40;99.90;;;;;;4899189;29;20233;-58
2022/04/17 00:57:28;;;;;;;19.07;14.37;;;7.30;99.90;;;;;;4898791;29;20241;-58
2022/04/17 00:59:58;;;;;;;19.03;15.10;;;7.40;99.90;;;;;;4899303;29;20265;-59
2022/04/17 01:02:26;;;;;;;18.23;13.73;;;7.30;99.90;;;;;;4900677;29;20666;-58
2022/04/17 01:04:55;;;;;;;18.93;14.77;;;7.30;99.90;;;;;;4899102;29;20245;-59
2022/04/17 01:07:25;;;;;;;19.70;14.57;;;7.10;99.90;;;;;;4899190;29;20198;-58
2022/04/17 01:09:56;;;;;;;20.73;14.60;;;7.10;99.90;;;;;;4899242;29;20241;-58
2022/04/17 01:12:24;;;;;;;18.77;14.03;;;7.10;99.90;;;;;;4898590;29;20241;-58
2022/04/17 01:14:54;;;;;;;21.40;15.57;;;7.00;99.90;;;;;;4899224;29;20296;-59
2022/04/17 01:17:22;;;;;;;22.77;15.70;;;7.00;99.90;;;;;;4898669;29;20694;-59
2022/04/17 01:19:50;;;;;;;21.20;15.57;;;7.00;99.90;;;;;;4898606;29;20252;-58
2022/04/17 01:22:20;;;;;;;21.07;14.53;;;7.00;99.90;;;;;;4908443;29;20277;-59
2022/04/17 01:27:36;;;;;;;20.53;14.67;;;7.00;99.90;;;;;;4897625;29;20244;-59
2022/04/17 01:30:04;;;;;;;23.27;15.10;;;6.90;99.90;;;;;;4887597;29;20249;-59
2022/04/17 01:32:32;;;;;;;22.33;16.40;;;6.90;99.90;;;;;;4898143;29;20710;-58
2022/04/17 01:35:01;;;;;;;21.40;16.17;;;6.90;99.90;;;;;;4898502;29;20658;-59
2022/04/17 01:37:30;;;;;;;22.23;15.77;;;6.90;99.90;;;;;;4898170;29;20748;-59
2022/04/17 01:39:58;;;;;;;20.10;15.53;;;6.90;99.90;;;;;;4898521;29;20296;-57
2022/04/17 01:42:26;;;;;;;21.87;14.83;;;6.90;99.90;;;;;;4899239;29;20249;-57
2022/04/17 01:44:54;;;;;;;20.00;14.67;;;6.90;99.90;;;;;;4898297;29;20252;-58
2022/04/17 01:47:23;;;;;;;25.70;18.27;;;6.90;99.90;;;;;;4896647;29;20245;-59
2022/04/17 01:49:51;;;;;;;22.43;16.80;;;6.80;99.90;;;;;;4898381;29;20781;-59
2022/04/17 01:52:19;;;;;;;24.53;16.83;;;6.80;99.90;;;;;;4903817;29;20745;-59
2022/04/17 01:54:49;;;;;;;24.33;15.97;;;6.80;99.90;;;;;;4898099;29;20241;-58
2022/04/17 01:57:17;;;;;;;23.20;15.80;;;6.70;99.90;;;;;;4896823;29;20313;-59
2022/04/17 01:59:45;;;;;;;23.13;16.10;;;6.70;99.90;;;;;;4897851;29;20253;-59
2022/04/17 02:02:13;;;;;;;20.83;15.93;;;6.70;99.90;;;;;;4900947;29;22177;-59
2022/04/17 02:04:42;;;;;;;24.13;16.20;;;6.70;99.90;;;;;;4897929;29;20265;-58
2022/04/17 02:07:10;;;;;;;22.83;16.43;;;6.60;99.90;;;;;;4897855;29;20241;-59
2022/04/17 02:09:38;;;;;;;26.27;16.77;;;6.60;99.90;;;;;;4897758;29;20237;-58
2022/04/17 02:12:08;;;;;;;20.37;15.60;;;6.60;99.90;;;;;;4898009;29;20732;-58
2022/04/17 02:14:36;;;;;;;20.97;13.83;;;6.60;99.90;;;;;;4897723;29;20288;-59
2022/04/17 02:17:04;;;;;;;23.47;15.33;;;6.60;99.90;;;;;;4899648;29;20250;-58
2022/04/17 02:19:33;;;;;;;20.80;15.03;;;6.50;99.90;;;;;;4897350;29;20281;-58
2022/04/17 02:22:01;;;;;;;18.27;13.47;;;6.50;99.90;;;;;;4905543;29;20245;-59
2022/04/17 02:24:29;;;;;;;19.83;14.40;;;6.40;99.90;;;;;;4898359;29;20244;-57
2022/04/17 02:26:57;;;;;;;18.90;14.17;;;6.50;99.90;;;;;;4896724;29;20328;-58
2022/04/17 02:29:26;;;;;;;20.17;13.47;;;6.50;99.90;;;;;;4897934;29;20293;-58
2022/04/17 02:31:54;;;;;;;18.73;13.43;;;6.50;99.90;;;;;;4897258;29;20253;-58
2022/04/17 02:34:22;;;;;;;20.47;13.10;;;6.40;99.90;;;;;;4897680;29;20241;-59
2022/04/17 02:36:50;;;;;;;18.93;13.17;;;6.40;99.90;;;;;;4897392;29;20777;-59
2022/04/17 02:39:18;;;;;;;17.10;13.00;;;6.50;99.90;;;;;;4897624;29;20241;-59
2022/04/17 02:41:46;;;;;;;17.30;12.90;;;6.40;99.90;;;;;;4896775;29;20275;-59
2022/04/17 02:44:15;;;;;;;18.63;12.63;;;6.40;99.90;;;;;;4897267;29;20237;-58
2022/04/17 02:49:30;;;;;;;17.53;12.67;;;6.40;99.90;;;;;;4896987;29;20325;-58
2022/04/17 02:51:58;;;;;;;12.63;9.73;;;6.30;99.90;;;;;;4900786;29;20717;-59
2022/04/17 02:54:26;;;;;;;16.60;11.07;;;6.30;99.90;;;;;;4898367;29;20266;-58
2022/04/17 02:56:54;;;;;;;14.90;10.33;;;6.30;99.90;;;;;;4896975;29;20249;-58
2022/04/17 02:59:22;;;;;;;15.70;11.53;;;6.30;99.90;;;;;;4897212;29;20236;-59
2022/04/17 03:07:23;;;;;;;16.50;11.63;;;6.50;99.90;;;;;;4896335;29;20237;-58
2022/04/17 03:09:52;;;;;;;16.67;12.03;;;6.40;99.90;;;;;;4897288;29;20489;-59
2022/04/17 03:12:20;;;;;;;15.93;11.60;;;6.30;99.90;;;;;;4898559;29;20244;-59
2022/04/17 03:14:48;;;;;;;13.23;9.87;;;6.30;99.90;;;;;;4896834;29;20245;-59
2022/04/17 03:17:17;;;;;;;15.10;10.40;;;6.30;99.90;;;;;;4896330;29;20236;-59
2022/04/17 03:19:46;;;;;;;16.17;10.50;;;6.20;99.90;;;;;;4900135;29;20261;-58
2022/04/17 03:22:14;;;;;;;14.40;10.70;;;6.20;99.90;;;;;;4902838;29;20255;-59
2022/04/17 03:24:43;;;;;;;15.73;11.00;;;6.30;99.90;;;;;;4896222;29;20590;-58
2022/04/17 03:27:11;;;;;;;14.60;10.13;;;6.20;99.90;;;;;;4896439;29;20245;-59
2022/04/17 03:29:39;;;;;;;14.33;9.63;;;6.40;99.90;;;;;;4882091;29;20271;-58
2022/04/17 03:32:07;;;;;;;15.40;10.57;;;6.60;99.90;;;;;;4896205;29;20252;-59
2022/04/17 03:34:37;;;;;;;16.03;11.47;;;6.60;99.90;;;;;;4895948;29;20717;-59
2022/04/17 03:37:06;;;;;;;16.17;11.30;;;6.60;99.90;;;;;;4896239;29;20253;-59
2022/04/17 03:39:34;;;;;;;16.53;11.97;;;6.60;99.90;;;;;;4896123;29;20237;-59
2022/04/17 03:42:02;;;;;;;15.33;9.97;;;6.60;99.90;;;;;;4897938;29;20262;-59
2022/04/17 03:44:30;;;;;;;16.37;10.73;;;6.40;99.90;;;;;;4895950;29;20242;-58
2022/04/17 03:46:58;;;;;;;13.00;8.90;;;6.30;99.90;;;;;;4896258;29;20335;-59
2022/04/17 03:49:27;;;;;;;15.83;10.63;;;6.30;99.90;;;;;;4896232;29;20245;-58
2022/04/17 03:51:56;;;;;;;14.53;9.93;;;6.30;99.90;;;;;;4899183;29;20245;-59
2022/04/17 03:54:24;;;;;;;14.00;10.13;;;6.20;99.90;;;;;;4897476;29;20241;-58
2022/04/17 03:56:53;;;;;;;12.40;9.77;;;6.10;99.90;;;;;;4896159;29;20241;-58
2022/04/17 03:59:21;;;;;;;14.23;10.23;;;6.10;99.90;;;;;;4895899;29;20245;-59
2022/04/17 04:01:49;;;;;;;16.43;10.30;;;6.10;99.90;;;;;;4898776;29;20241;-58
2022/04/17 04:04:18;;;;;;;13.40;9.97;;;6.00;99.90;;;;;;4895768;29;20654;-59
2022/04/17 04:06:46;;;;;;;16.20;11.13;;;6.00;99.90;;;;;;4895664;29;20798;-59
2022/04/17 04:09:16;;;;;;;15.57;9.97;;;6.00;99.90;;;;;;4896140;29;20237;-59
2022/04/17 04:11:45;;;;;;;12.47;9.13;;;6.00;99.90;;;;;;4897278;29;20709;-59
2022/04/17 04:14:13;;;;;;;15.30;11.27;;;6.00;99.90;;;;;;4895803;29;20252;-58
2022/04/17 04:16:41;;;;;;;13.77;10.30;;;5.80;99.90;;;;;;4895390;29;20229;-59
2022/04/17 04:19:13;;;;;;;14.83;10.53;;;5.80;99.90;;;;;;4898979;29;20252;-58
2022/04/17 04:21:48;;;;;;;13.67;11.00;;;5.70;99.90;;;;;;4896622;29;20249;-59
2022/04/17 04:24:19;;;;;;;15.43;10.73;;;5.60;99.90;;;;;;4898619;29;20319;-58
2022/04/17 04:28:33;;;;;;;15.13;11.00;;;5.60;99.90;;;;;;4895349;29;20248;-59
2022/04/17 04:29:38;;;;;;;19.30;11.83;;;5.50;99.90;;;;;;4894761;29;20758;-58
2022/04/17 04:32:07;;;;;;;16.77;12.00;;;5.50;99.90;;;;;;4895315;29;20328;-59
2022/04/17 04:34:35;;;;;;;15.70;10.73;;;5.50;99.90;;;;;;4894890;29;20326;-59
2022/04/17 04:37:04;;;;;;;15.70;11.57;;;5.50;99.90;;;;;;4894126;29;20253;-59
2022/04/17 04:39:33;;;;;;;16.60;11.27;;;5.50;99.90;;;;;;4895323;29;20289;-58
2022/04/17 04:42:01;;;;;;;15.33;11.07;;;5.40;99.90;;;;;;4894877;29;20244;-58
2022/04/17 04:44:29;;;;;;;16.00;11.10;;;5.40;99.90;;;;;;4894163;29;20252;-58
2022/04/17 04:46:58;;;;;;;16.97;11.63;;;5.40;99.90;;;;;;4897063;29;20251;-58
2022/04/17 04:49:31;;;;;;;16.27;11.70;;;5.40;99.90;;;;;;4895280;29;20709;-58
2022/04/17 04:52:00;;;;;;;15.27;10.90;;;5.40;99.90;;;;;;4898752;29;20245;-59
2022/04/17 04:54:29;;;;;;;13.93;9.13;;;5.40;99.90;;;;;;4895091;29;20301;-58
2022/04/17 04:57:00;;;;;;;13.10;9.43;;;5.60;99.90;;;;;;4897381;29;20567;-58
2022/04/17 04:59:29;;;;;;;14.30;9.60;;;5.80;99.90;;;;;;4895177;29;20283;-59
2022/04/17 05:01:57;;;;;;;15.37;9.87;;;5.70;99.90;;;;;;4898106;29;20250;-59
2022/04/17 05:04:25;;;;;;;14.17;9.27;;;5.80;99.90;;;;;;4895217;29;20760;-57
2022/04/17 05:06:53;;;;;;;11.70;9.43;;;6.00;99.90;;;;;;4895163;29;20233;-59
2022/04/17 05:09:21;;;;;;;17.20;11.13;;;5.90;99.90;;;;;;4895669;29;20733;-58
2022/04/17 05:11:50;;;;;;;16.03;10.77;;;5.90;99.90;;;;;;4895122;29;20596;-58
2022/04/17 05:14:20;;;;;;;15.90;10.20;;;5.80;99.90;;;;;;4895420;29;20634;-59
2022/04/17 05:16:48;;;;;;;15.57;10.13;;;5.90;99.90;;;;;;4894807;29;20666;-59
2022/04/17 05:19:20;;;;;;;15.63;9.90;;;5.90;99.90;;;;;;4899045;29;20961;-59
2022/04/17 05:21:51;;;;;;;16.00;10.47;;;6.20;99.90;;;;;;4894992;29;20269;-59
2022/04/17 05:24:19;;;;;;;16.10;10.40;;;6.20;99.90;;;;;;4895185;29;20237;-57
2022/04/17 05:26:47;;;;;;;14.70;10.33;;;6.30;99.90;;;;;;4894819;29;20331;-59
2022/04/17 05:29:15;;;;;;;17.00;11.30;;;6.40;99.90;;;;;;4895581;29;20718;-59
2022/04/17 05:31:45;;;;;;;18.83;11.63;;;6.40;99.90;;;;;;4896552;29;20249;-59
2022/04/17 05:34:13;;;;;;;15.93;10.30;;;6.60;99.90;;;;;;4898487;29;20244;-59
2022/04/17 05:36:41;;;;;;;19.20;11.43;;;6.60;99.90;;;;;;4898334;29;20714;-59
2022/04/17 05:39:10;;;;;;;21.30;11.80;;;6.60;99.90;;;;;;4898700;29;20245;-60
2022/04/17 05:41:39;;;;;;;19.63;11.70;;;6.60;99.90;;;;;;4897992;29;20296;-59
2022/04/17 05:44:09;;;;;;;19.10;11.60;;;6.70;99.90;;;;;;4898385;29;20739;-58
2022/04/17 05:46:37;;;;;;;17.87;10.90;;;6.80;99.90;;;;;;4897788;29;20658;-59
2022/04/17 05:49:08;;;;;;;17.30;10.07;;;7.00;99.90;;;;;;4898572;29;20305;-59
2022/04/17 05:51:37;;;;;;;8.70;6.70;;;7.30;99.90;;;;;;4901575;29;20237;-58
2022/04/17 05:54:07;;;;;;;10.63;7.70;;;7.50;99.90;;;;;;4898518;29;20245;-58
2022/04/17 05:56:37;;;;;;;10.67;7.30;;;7.70;99.90;;;;;;4899866;29;20304;-59
2022/04/17 05:59:07;;;;;;;12.53;7.33;;;7.90;99.90;;;;;;4898128;29;20280;-58
2022/04/17 06:01:35;;;;;;;12.03;7.20;;;8.10;99.90;;;;;;4897309;29;20324;-59
2022/04/17 06:04:03;;;;;;;9.03;6.73;;;8.20;99.90;;;;;;4898257;29;20270;-58
2022/04/17 06:06:33;;;;;;;8.43;5.40;;;8.40;99.90;;;;;;4897530;29;20233;-59
2022/04/17 06:09:02;;;;;;;6.50;5.53;;;8.60;99.90;;;;;;4898126;29;20265;-58
2022/04/17 06:11:31;;;;;;;7.57;5.70;;;8.70;99.90;;;;;;4897526;29;20276;-58
2022/04/17 06:13:59;;;;;;;8.43;6.17;;;8.90;99.90;;;;;;4897916;29;20357;-59
2022/04/17 06:16:27;;;;;;;9.63;5.83;;;9.00;99.90;;;;;;4897441;29;20676;-59
2022/04/17 06:18:55;;;;;;;7.60;5.00;;;9.20;99.90;;;;;;4897837;29;20838;-59
2022/04/17 06:21:24;;;;;;;6.87;5.40;;;9.40;99.90;;;;;;4899325;29;20237;-57
2022/04/17 06:23:53;;;;;;;7.63;4.70;;;9.50;99.90;;;;;;4898183;29;20786;-58
2022/04/17 06:26:21;;;;;;;6.63;4.83;;;9.50;99.90;;;;;;4897463;29;20289;-59
2022/04/17 06:28:50;;;;;;;6.77;4.60;;;9.70;99.90;;;;;;4897744;29;20642;-59
2022/04/17 06:31:18;;;;;;;6.43;4.33;;;9.70;99.90;;;;;;4897744;29;20632;-59
2022/04/17 06:33:46;;;;;;;7.23;4.67;;;9.90;99.90;;;;;;4897132;29;20282;-59
2022/04/17 06:36:14;;;;;;;5.60;3.90;;;10.10;99.90;;;;;;4897489;29;20250;-59
2022/04/17 06:38:42;;;;;;;8.10;4.70;;;10.30;99.90;;;;;;4897288;29;20239;-58
2022/04/17 06:41:11;;;;;;;7.40;4.70;;;10.40;99.90;;;;;;4896802;29;20265;-59
2022/04/17 06:43:40;;;;;;;6.70;4.50;;;10.50;99.90;;;;;;4896708;29;20322;-58
2022/04/17 06:46:08;;;;;;;7.80;4.90;;;10.60;99.90;;;;;;4897193;29;20286;-58
2022/04/17 06:48:36;;;;;;;5.60;3.97;;;10.60;99.90;;;;;;4897076;29;20238;-58
2022/04/17 06:51:04;;;;;;;6.17;4.60;;;10.60;99.90;;;;;;4900611;29;20667;-58
2022/04/17 06:53:32;;;;;;;6.70;3.73;;;10.80;99.90;;;;;;4896909;29;20253;-59
2022/04/17 06:56:00;;;;;;;7.43;4.43;;;11.00;99.90;;;;;;4897425;29;20293;-59
2022/04/17 06:58:29;;;;;;;6.50;4.63;;;11.20;99.90;;;;;;4896762;29;20239;-59
2022/04/17 07:00:58;;;;;;;5.80;4.37;;;11.30;99.90;;;;;;4901628;29;20263;-58
2022/04/17 07:03:26;;;;;;;6.63;4.43;;;11.40;99.90;;;;;;4897311;29;20569;-58
2022/04/17 07:05:54;;;;;;;6.47;4.40;;;11.50;99.90;;;;;;4896869;29;20251;-58
2022/04/17 07:08:22;;;;;;;5.50;3.97;;;11.40;99.90;;;;;;4897328;29;20239;-59
2022/04/17 07:10:50;;;;;;;5.77;4.33;;;11.50;99.90;;;;;;4896866;29;20257;-59
2022/04/17 07:13:19;;;;;;;5.60;3.83;;;11.60;99.90;;;;;;4896818;29;20270;-59
2022/04/17 07:15:49;;;;;;;6.27;3.90;;;11.50;99.90;;;;;;4896547;29;20656;-58
2022/04/17 07:18:17;;;;;;;6.07;3.90;;;11.50;99.90;;;;;;4896811;29;20240;-58
2022/04/17 07:20:45;;;;;;;5.03;4.00;;;11.70;99.90;;;;;;4900279;29;20279;-59
2022/04/17 07:23:13;;;;;;;5.50;4.20;;;11.70;99.90;;;;;;4899971;29;20248;-58
2022/04/17 07:25:42;;;;;;;5.93;3.67;;;11.90;99.90;;;;;;4898255;29;20309;-59
2022/04/17 07:28:13;;;;;;;5.10;3.80;;;12.20;99.90;;;;;;4896510;29;20271;-58
2022/04/17 07:30:44;;;;;;;5.63;3.70;;;12.30;99.90;;;;;;4896189;29;20744;-58
2022/04/17 07:33:14;;;;;;;6.27;3.77;;;12.50;99.90;;;;;;4896121;29;20797;-58
2022/04/17 07:35:44;;;;;;;3.77;3.40;;;12.40;99.90;;;;;;4896122;29;20319;-59
2022/04/17 07:38:12;;;;;;;3.70;3.30;;;12.20;99.90;;;;;;4896479;29;20248;-59
2022/04/17 07:40:41;;;;;;;4.40;3.40;;;12.40;99.90;;;;;;4894659;29;20815;-58
2022/04/17 07:43:09;;;;;;;4.33;3.13;;;12.30;99.90;;;;;;4896249;29;20241;-58
2022/04/17 07:45:37;;;;;;;5.37;3.50;;;12.20;99.90;;;;;;4896056;29;20258;-58
2022/04/17 07:48:06;;;;;;;5.90;3.20;;;12.30;99.90;;;;;;4896117;29;20259;-58
2022/04/17 07:50:36;;;;;;;4.70;3.10;;;12.40;99.90;;;;;;4899485;29;20235;-59
2022/04/17 07:53:04;;;;;;;5.60;3.03;;;12.50;99.90;;;;;;4896227;29;20286;-59
2022/04/17 07:55:32;;;;;;;4.13;3.20;;;12.70;99.90;;;;;;4896816;29;20239;-59
2022/04/17 07:58:07;;;;;;;6.10;3.40;;;12.90;99.90;;;;;;4895847;29;20255;-58
2022/04/17 08:00:45;;;;;;;3.73;3.00;;;13.10;99.90;;;;;;4895553;29;20327;-58
2022/04/17 08:05:58;;;;;;;4.43;3.20;;;13.90;99.90;;;;;;4893443;29;20599;-59
2022/04/17 08:08:26;;;;;;;4.73;3.20;;;14.10;99.90;;;;;;4895647;29;20731;-58
2022/04/17 08:10:54;;;;;;;3.97;2.80;;;14.10;99.90;;;;;;4895874;29;20255;-59
2022/04/17 08:13:23;;;;;;;4.20;3.00;;;14.20;99.90;;;;;;4896086;29;20248;-59
2022/04/17 08:15:51;;;;;;;5.00;3.17;;;14.10;99.90;;;;;;4895762;29;20244;-58
2022/04/17 08:18:19;;;;;;;4.83;3.30;;;14.30;99.90;;;;;;4895779;29;20304;-58
2022/04/17 08:20:47;;;;;;;4.83;2.80;;;14.40;99.90;;;;;;4895260;29;20739;-59
2022/04/17 08:23:16;;;;;;;5.63;2.83;;;14.70;99.90;;;;;;4895775;29;20240;-58
2022/04/17 08:25:46;;;;;;;4.57;3.20;;;14.90;99.40;;;;;;4895286;29;20802;-58
2022/04/17 08:28:14;;;;;;;4.23;3.00;;;14.60;97.60;;;;;;4895699;29;20656;-59
2022/04/17 08:30:42;;;;;;;3.90;3.00;;;14.80;99.00;;;;;;4897084;29;20601;-59
2022/04/17 08:33:10;;;;;;;5.70;3.07;;;15.10;97.20;;;;;;4895392;29;20256;-58
2022/04/17 08:35:39;;;;;;;4.67;3.10;;;15.40;97.70;;;;;;4894943;29;20337;-60
2022/04/17 08:38:07;;;;;;;4.77;3.40;;;15.60;98.10;;;;;;4895647;29;20249;-58
2022/04/17 08:40:39;;;;;;;4.23;3.07;;;15.80;97.70;;;;;;4895273;29;20233;-58
2022/04/17 08:43:08;;;;;;;4.93;3.50;;;15.90;97.30;;;;;;4891650;29;20229;-59
2022/04/17 08:45:36;;;;;;;5.40;3.60;;;16.10;96.20;;;;;;4895158;29;20256;-58
2022/04/17 08:48:06;;;;;;;4.67;3.80;;;16.30;95.50;;;;;;4894985;29;20304;-59
2022/04/17 08:50:40;;;;;;;5.07;3.57;;;16.50;94.80;;;;;;4896966;29;20240;-59
2022/04/17 08:53:09;;;;;;;4.80;3.73;;;16.40;93.50;;;;;;4895702;29;20253;-58
2022/04/17 08:55:39;;;;;;;6.40;4.03;;;16.40;93.90;;;;;;4894948;29;20340;-58
2022/04/17 08:58:07;;;;;;;4.87;3.40;;;16.70;94.40;;;;;;4895213;29;20251;-58
2022/04/17 09:00:35;;;;;;;3.43;2.77;;;17.20;95.10;;;;;;4895801;29;20238;-58
2022/04/17 09:03:03;;;;;;;4.97;2.97;;;17.30;93.50;;;;;;4895211;29;20665;-59
2022/04/17 09:05:33;;;;;;;3.23;2.50;;;17.40;94.10;;;;;;4895285;29;20328;-59
2022/04/17 09:08:13;;;;;;;2.97;2.53;;;17.50;93.20;;;;;;4899183;29;20655;-58
2022/04/17 09:10:53;;;;;;;3.20;2.40;;;17.60;91.80;;;;;;4898944;29;20236;-58
2022/04/17 09:13:32;;;;;;;3.83;2.30;;;17.70;92.00;;;;;;4899363;29;20252;-58
2022/04/17 09:16:02;;;;;;;3.67;2.50;;;17.90;92.20;;;;;;4898833;29;20618;-58
2022/04/17 09:18:32;;;;;;;2.73;2.07;;;18.00;91.20;;;;;;4898434;29;20268;-59
2022/04/17 09:21:01;;;;;;;3.33;2.27;;;18.20;91.30;;;;;;4897672;29;20242;-58
2022/04/17 09:23:34;;;;;;;3.93;2.20;;;18.40;88.90;;;;;;4898781;29;20242;-59
2022/04/17 09:26:05;;;;;;;3.97;2.23;;;18.70;91.20;;;;;;4898724;29;20647;-58
2022/04/17 09:28:34;;;;;;;3.70;2.40;;;18.80;90.10;;;;;;4898691;29;20313;-58
2022/04/17 09:31:10;;;;;;;3.60;2.00;;;18.90;90.00;;;;;;4899138;29;20334;-58
2022/04/17 09:33:40;;;;;;;2.70;2.07;;;19.10;88.10;;;;;;4890574;29;20248;-58
2022/04/17 09:36:09;;;;;;;3.47;2.13;;;19.40;88.50;;;;;;4898536;29;20247;-58
2022/04/17 09:38:47;;;;;;;3.00;2.27;;;19.50;88.70;;;;;;4898464;29;20248;-59
2022/04/17 09:41:19;;;;;;;5.07;2.10;;;19.20;84.10;;;;;;4904639;29;20298;-58
2022/04/17 09:43:47;;;;;;;2.27;2.07;;;19.30;85.30;;;;;;4898440;29;20300;-58
2022/04/17 09:46:16;;;;;;;3.83;1.90;;;19.50;81.70;;;;;;4898587;29;20239;-58
2022/04/17 09:48:45;;;;;;;3.60;2.47;;;19.40;85.00;;;;;;4898240;29;20263;-59
2022/04/17 09:51:23;;;;;;;3.47;2.27;;;19.30;80.90;;;;;;4900002;29;20272;-59
2022/04/17 09:53:57;;;;;;;3.10;2.00;;;19.20;81.40;;;;;;4898337;29;20278;-59
2022/04/17 09:56:34;;;;;;;4.10;1.90;;;19.00;80.40;;;;;;4897947;29;20245;-59
2022/04/17 09:59:16;;;;;;;2.50;2.23;;;19.20;83.60;;;;;;4898506;29;20717;-58
2022/04/17 10:01:46;;;;;;;2.93;2.03;;;19.40;81.10;;;;;;4892742;29;20252;-58
2022/04/17 10:04:16;;;;;;;2.33;1.80;;;19.60;81.80;;;;;;4898053;29;20257;-58
2022/04/17 10:06:44;;;;;;;3.97;1.90;;;19.40;77.80;;;;;;4897664;29;20244;-58
2022/04/17 10:09:13;;;;;;;4.37;1.97;;;19.40;80.80;;;;;;4897983;29;20266;-59
2022/04/17 10:11:43;;;;;;;2.77;2.00;;;19.80;79.50;;;;;;4897683;29;20237;-58
2022/04/17 10:14:11;;;;;;;2.07;1.50;;;20.00;77.30;;;;;;4898134;29;20262;-58
2022/04/17 10:16:42;;;;;;;2.37;1.80;;;20.20;77.50;;;;;;4897537;29;20299;-59
2022/04/17 10:19:13;;;;;;;2.03;1.70;;;20.40;77.00;;;;;;4896666;29;20731;-59
2022/04/17 10:21:42;;;;;;;2.73;1.60;;;20.80;80.80;;;;;;4895722;29;20335;-58
2022/04/17 10:24:13;;;;;;;1.97;1.70;;;21.10;78.80;;;;;;4898021;29;20260;-59
2022/04/17 10:26:47;;;;;;;2.83;1.70;;;20.80;74.30;;;;;;4897256;29;20257;-59
2022/04/17 10:29:23;;;;;;;2.23;1.50;;;20.90;71.60;;;;;;4898091;29;20237;-59
2022/04/17 10:32:07;;;;;;;3.17;2.00;;;20.80;74.20;;;;;;4897498;29;20261;-59
2022/04/17 10:35:00;;;;;;;1.80;1.50;;;20.90;73.10;;;;;;4897227;29;20292;-58
2022/04/17 10:38:07;;;;;;;1.87;1.67;;;21.20;75.10;;;;;;4895919;29;20245;-59
2022/04/17 10:40:36;;;;;;;1.70;1.57;;;20.70;69.00;;;;;;4897172;29;20323;-58
2022/04/17 10:43:06;;;;;;;2.97;1.63;;;21.00;73.30;;;;;;4901732;29;20352;-59
2022/04/17 10:46:09;;;;;;;2.57;1.70;;;20.90;71.70;;;;;;4897261;29;20289;-59
2022/04/17 10:48:48;;;;;;;2.40;1.50;;;20.70;70.00;;;;;;4897210;29;20271;-59
2022/04/17 10:51:26;;;;;;;3.03;1.70;;;20.20;69.70;;;;;;4899279;29;20240;-59
2022/04/17 10:54:03;;;;;;;2.33;1.70;;;20.40;71.10;;;;;;4897315;29;20255;-57
2022/04/17 10:56:33;;;;;;;2.03;1.57;;;20.50;67.80;;;;;;4896415;29;20245;-58
2022/04/17 10:59:06;;;;;;;2.03;1.53;;;20.50;66.50;;;;;;4897187;29;20337;-59
2022/04/17 11:01:54;;;;;;;2.77;1.70;;;20.90;69.30;;;;;;4896320;29;20292;-59
2022/04/17 11:04:25;;;;;;;4.00;1.50;;;20.70;67.50;;;;;;4897269;29;20244;-58
2022/04/17 11:07:10;;;;;;;1.60;1.40;;;20.40;68.20;;;;;;4896874;29;20245;-59
2022/04/17 11:09:41;;;;;;;1.73;1.30;;;20.50;66.80;;;;;;4885458;29;20245;-58
2022/04/17 11:12:23;;;;;;;1.53;1.27;;;20.60;66.10;;;;;;4898666;29;20257;-58
2022/04/17 11:15:17;;;;;;;1.10;1.00;;;20.80;65.10;;;;;;4896704;29;20263;-58
2022/04/17 11:17:48;;;;;;;1.83;1.23;;;21.10;65.70;;;;;;4893744;29;20255;-60
2022/04/17 11:20:17;;;;;;;2.87;1.20;;;21.20;64.80;;;;;;4900526;29;20251;-58
2022/04/17 11:22:45;;;;;;;1.53;1.30;;;21.30;66.30;;;;;;4900656;29;20241;-59
2022/04/17 11:25:14;;;;;;;1.33;1.10;;;21.40;62.90;;;;;;4898346;29;20638;-59
2022/04/17 11:27:47;;;;;;;1.63;1.20;;;20.90;60.50;;;;;;4896213;29;20240;-59
2022/04/17 11:30:37;;;;;;;5.17;4.23;;;20.50;59.80;;;;;;4895906;29;20241;-59
2022/04/17 11:33:08;;;;;;;4.53;3.10;;;20.40;61.20;;;;;;4896443;29;20907;-59
2022/04/17 11:35:36;;;;;;;3.43;2.80;;;20.10;63.20;;;;;;4896239;29;20681;-59
2022/04/17 11:38:07;;;;;;;2.63;1.70;;;20.10;62.40;;;;;;4896368;29;20249;-58
2022/04/17 11:40:37;;;;;;;1.87;1.47;;;20.50;63.10;;;;;;4896366;29;20316;-59
2022/04/17 11:43:07;;;;;;;1.90;1.50;;;20.70;62.70;;;;;;4892199;29;20241;-59
2022/04/17 11:45:38;;;;;;;2.17;1.10;;;20.60;58.60;;;;;;4895883;29;20296;-59
2022/04/17 11:48:08;;;;;;;1.20;1.10;;;20.40;61.40;;;;;;4896273;29;20328;-58
2022/04/17 11:50:37;;;;;;;2.93;1.30;;;20.70;63.50;;;;;;4897744;29;20598;-59
2022/04/17 11:53:07;;;;;;;2.43;1.13;;;20.60;61.50;;;;;;4896493;29;20253;-58
2022/04/17 11:55:36;;;;;;;1.40;1.07;;;20.60;59.00;;;;;;4895665;29;20252;-59
2022/04/17 11:58:09;;;;;;;1.27;1.10;;;20.40;61.40;;;;;;4895987;29;20268;-58
2022/04/17 12:00:42;;;;;;;1.27;1.00;;;20.30;62.80;;;;;;4895940;29;20326;-58
2022/04/17 12:03:11;;;;;;;1.50;1.20;;;20.20;61.70;;;;;;4895997;29;20328;-58
2022/04/17 12:05:39;;;;;;;1.33;1.17;;;20.00;60.60;;;;;;4895554;29;20229;-59
2022/04/17 12:08:10;;;;;;;1.33;1.07;;;19.70;64.20;;;;;;4895958;29;20256;-58
2022/04/17 12:10:40;;;;;;;2.00;0.97;;;19.70;62.70;;;;;;4895476;29;20236;-59
2022/04/17 12:13:18;;;;;;;1.57;1.20;;;19.60;59.90;;;;;;4895947;29;20244;-59
2022/04/17 12:15:59;;;;;;;1.87;1.10;;;19.40;60.60;;;;;;4895849;29;20263;-59
2022/04/17 12:18:27;;;;;;;1.67;1.00;;;19.10;62.30;;;;;;4895130;29;20250;-58
2022/04/17 12:20:56;;;;;;;3.10;1.40;;;19.10;64.60;;;;;;4895143;29;20244;-58
2022/04/17 12:23:25;;;;;;;1.93;1.13;;;19.30;62.30;;;;;;4895654;29;20648;-59
2022/04/17 12:25:54;;;;;;;1.97;1.50;;;19.30;63.70;;;;;;4895936;29;20609;-58
2022/04/17 12:28:23;;;;;;;1.90;1.00;;;19.30;66.90;;;;;;4895830;29;20864;-59
2022/04/17 12:30:53;;;;;;;1.83;1.20;;;19.30;63.50;;;;;;4896010;29;20283;-59
2022/04/17 12:33:23;;;;;;;1.93;1.20;;;19.30;63.90;;;;;;4895410;29;20247;-59
2022/04/17 12:36:09;;;;;;;1.57;1.00;;;19.20;61.20;;;;;;4895566;29;20327;-59
2022/04/17 12:38:39;;;;;;;1.23;1.10;;;19.00;59.00;;;;;;4895296;29;20319;-59
2022/04/17 12:41:18;;;;;;;2.40;1.13;;;18.60;61.50;;;;;;4898341;29;20719;-59
2022/04/17 12:43:49;;;;;;;1.37;0.83;;;18.60;62.30;;;;;;4895242;29;20252;-59
2022/04/17 12:46:27;;;;;;;1.23;1.13;;;18.80;65.40;;;;;;4897066;29;20318;-58
2022/04/17 12:49:07;;;;;;;1.43;1.10;;;19.00;65.80;;;;;;4894817;29;20244;-58
2022/04/17 12:51:37;;;;;;;2.40;1.10;;;18.90;66.20;;;;;;4898403;29;20245;-59
2022/04/17 12:54:09;;;;;;;1.30;1.10;;;18.80;64.50;;;;;;4895631;29;20244;-59
2022/04/17 12:56:38;;;;;;;1.10;1.00;;;18.90;63.70;;;;;;4896638;29;20276;-59
2022/04/17 12:59:07;;;;;;;2.33;1.50;;;18.90;66.10;;;;;;4895431;29;20252;-59
2022/04/17 13:01:40;;;;;;;3.87;1.37;;;18.70;62.70;;;;;;4894537;29;20716;-59
2022/04/17 13:04:10;;;;;;;1.80;1.20;;;18.60;65.30;;;;;;4895475;29;20327;-58
2022/04/17 13:06:39;;;;;;;1.97;1.20;;;18.70;66.30;;;;;;4894959;29;20718;-58
2022/04/17 13:09:12;;;;;;;1.50;1.10;;;18.50;65.20;;;;;;4895281;29;20251;-59
2022/04/17 13:11:43;;;;;;;2.03;1.40;;;18.50;66.60;;;;;;4894831;29;20250;-58